Time;durP1;ratioP1;P1;durP2;ratioP2;P2;SDS_P1;SDS_P2;PMS_P1;PMS_P2;Temp;Humidity;BMP_temperature;BMP_pressure;BME280_temperature;BME280_humidity;BME280_pressure;Samples;Min_cycle;Max_cycle;Signal;HPM_P1;HPM_P2
2023/10/23 00:01:46;;;;;;;8.07;3.87;;;11.20;99.90;;;;;;949837;146;27399;-76
2023/10/23 00:04:13;;;;;;;5.47;3.13;;;11.10;99.90;;;;;;950691;146;27351;-76
2023/10/23 00:06:40;;;;;;;5.33;2.93;;;11.10;99.90;;;;;;947087;146;28114;-76
2023/10/23 00:09:06;;;;;;;4.07;2.90;;;11.10;99.90;;;;;;948095;146;27293;-76
2023/10/23 00:11:33;;;;;;;4.57;3.27;;;11.10;99.90;;;;;;948902;146;27348;-76
2023/10/23 00:13:59;;;;;;;6.30;3.30;;;11.00;99.90;;;;;;949641;146;27395;-76
2023/10/23 00:16:26;;;;;;;7.57;3.30;;;11.00;99.90;;;;;;950104;146;27302;-76
2023/10/23 00:18:53;;;;;;;4.43;3.17;;;11.00;99.90;;;;;;949633;146;27348;-76
2023/10/23 00:21:19;;;;;;;8.27;2.90;;;11.00;99.90;;;;;;948385;146;27342;-76
2023/10/23 00:23:46;;;;;;;5.67;3.07;;;11.00;99.90;;;;;;953628;146;27337;-76
2023/10/23 00:26:12;;;;;;;5.90;3.30;;;10.90;99.90;;;;;;954560;146;27397;-76
2023/10/23 00:28:39;;;;;;;4.23;3.33;;;10.90;99.90;;;;;;954704;146;27339;-76
2023/10/23 00:31:05;;;;;;;4.30;2.77;;;10.90;99.90;;;;;;954435;146;27866;-76
2023/10/23 00:33:32;;;;;;;4.57;3.07;;;10.80;99.90;;;;;;951837;146;27324;-75
2023/10/23 00:35:59;;;;;;;7.00;3.17;;;10.80;99.90;;;;;;951016;146;27243;-75
2023/10/23 00:38:28;;;;;;;6.77;2.87;;;10.80;99.90;;;;;;951668;146;27297;-73
2023/10/23 00:40:52;;;;;;;5.70;3.00;;;10.70;99.90;;;;;;950800;146;27298;-76
2023/10/23 00:43:18;;;;;;;5.43;3.10;;;10.70;99.90;;;;;;952618;146;27342;-74
2023/10/23 00:45:53;;;;;;;3.27;2.60;;;10.60;99.90;;;;;;951772;146;27305;-74
2023/10/23 00:48:20;;;;;;;5.30;2.77;;;10.60;99.90;;;;;;951695;146;27343;-75
2023/10/23 00:50:49;;;;;;;3.23;2.67;;;10.50;99.90;;;;;;951226;146;27426;-73
2023/10/23 00:53:19;;;;;;;2.80;2.60;;;10.50;99.90;;;;;;953022;147;27338;-76
2023/10/23 00:55:45;;;;;;;3.40;2.60;;;10.40;99.90;;;;;;949963;146;27399;-75
2023/10/23 00:58:12;;;;;;;5.77;3.00;;;10.40;99.90;;;;;;950305;146;27489;-73
2023/10/23 01:00:38;;;;;;;5.87;2.43;;;10.30;99.90;;;;;;950501;146;27338;-73
2023/10/23 01:03:05;;;;;;;4.33;2.47;;;10.30;99.90;;;;;;950882;146;27424;-74
2023/10/23 01:05:31;;;;;;;5.10;3.07;;;10.20;99.90;;;;;;952390;149;27373;-73
2023/10/23 01:07:58;;;;;;;4.30;2.63;;;10.20;99.90;;;;;;953164;149;27334;-73
2023/10/23 01:10:25;;;;;;;3.30;2.70;;;10.20;99.90;;;;;;953532;148;27321;-77
2023/10/23 01:12:51;;;;;;;4.37;2.77;;;10.10;99.90;;;;;;952835;149;27424;-74
2023/10/23 01:15:18;;;;;;;5.93;3.10;;;10.10;99.90;;;;;;953943;149;27376;-73
2023/10/23 01:17:44;;;;;;;9.20;2.97;;;10.00;99.90;;;;;;951998;149;27446;-74
2023/10/23 01:20:11;;;;;;;5.73;3.17;;;10.00;99.90;;;;;;952591;149;27470;-77
2023/10/23 01:22:38;;;;;;;4.50;2.70;;;10.00;99.90;;;;;;954192;149;27365;-74
2023/10/23 01:25:04;;;;;;;4.23;3.23;;;10.00;99.90;;;;;;952182;149;27436;-74
2023/10/23 01:27:31;;;;;;;5.20;2.63;;;9.90;99.90;;;;;;949690;149;27353;-74
2023/10/23 01:29:57;;;;;;;3.30;2.57;;;9.90;99.90;;;;;;953028;149;27347;-75
2023/10/23 01:32:24;;;;;;;3.73;2.70;;;9.90;99.90;;;;;;953516;149;27276;-73
2023/10/23 01:34:51;;;;;;;7.40;3.27;;;9.80;99.90;;;;;;949325;149;27377;-73
2023/10/23 01:37:17;;;;;;;3.93;2.70;;;9.90;99.90;;;;;;952322;149;27299;-74
2023/10/23 01:39:44;;;;;;;6.40;3.20;;;9.80;99.90;;;;;;952571;149;27317;-74
2023/10/23 01:42:10;;;;;;;6.70;2.70;;;9.80;99.90;;;;;;953116;149;27269;-76
2023/10/23 01:44:37;;;;;;;6.10;2.83;;;9.80;99.90;;;;;;952865;149;27357;-78
2023/10/23 01:47:03;;;;;;;7.13;2.97;;;9.80;99.90;;;;;;952653;149;27377;-78
2023/10/23 01:49:30;;;;;;;3.90;2.50;;;9.80;99.90;;;;;;952997;149;27374;-81
2023/10/23 01:51:57;;;;;;;3.67;2.67;;;9.70;99.90;;;;;;952200;149;28082;-81
2023/10/23 01:54:23;;;;;;;5.87;2.77;;;9.70;99.90;;;;;;953321;149;27339;-79
2023/10/23 01:56:50;;;;;;;5.20;2.90;;;9.70;99.90;;;;;;952689;149;28073;-76
2023/10/23 01:59:16;;;;;;;4.57;3.00;;;9.70;99.90;;;;;;953952;149;27241;-80
2023/10/23 02:01:43;;;;;;;4.57;2.60;;;9.60;99.90;;;;;;954573;149;27329;-80
2023/10/23 02:04:10;;;;;;;4.20;2.70;;;9.70;99.90;;;;;;953198;149;27442;-80
2023/10/23 02:06:36;;;;;;;2.63;2.33;;;9.60;99.90;;;;;;951916;149;27300;-78
2023/10/23 02:09:03;;;;;;;3.90;2.70;;;9.60;99.90;;;;;;952565;149;28738;-80
2023/10/23 02:11:29;;;;;;;3.73;2.83;;;9.60;99.90;;;;;;951825;149;27365;-80
2023/10/23 02:13:56;;;;;;;3.60;2.73;;;9.50;99.90;;;;;;951601;148;27294;-76
2023/10/23 02:16:22;;;;;;;3.83;2.60;;;9.50;99.90;;;;;;952767;149;27373;-78
2023/10/23 02:18:49;;;;;;;4.17;2.63;;;9.50;99.90;;;;;;953839;149;27321;-80
2023/10/23 02:21:16;;;;;;;3.27;2.53;;;9.50;99.90;;;;;;952577;149;27465;-79
2023/10/23 02:23:42;;;;;;;4.17;2.50;;;9.40;99.90;;;;;;952164;149;27355;-77
2023/10/23 02:26:09;;;;;;;2.70;2.17;;;9.40;99.90;;;;;;954622;149;27319;-80
2023/10/23 02:28:35;;;;;;;4.53;2.80;;;9.40;99.90;;;;;;952021;149;27409;-79
2023/10/23 02:31:02;;;;;;;4.80;2.70;;;9.40;99.90;;;;;;953693;149;27377;-80
2023/10/23 02:33:29;;;;;;;5.50;2.90;;;9.30;99.90;;;;;;952410;149;27347;-80
2023/10/23 02:35:55;;;;;;;3.83;2.70;;;9.30;99.90;;;;;;953991;148;27337;-79
2023/10/23 02:38:22;;;;;;;9.20;2.80;;;9.30;99.90;;;;;;952526;149;27922;-79
2023/10/23 02:40:51;;;;;;;3.27;2.47;;;9.20;99.90;;;;;;952387;148;27286;-79
2023/10/23 02:43:18;;;;;;;3.53;2.43;;;9.20;99.90;;;;;;952599;149;27388;-80
2023/10/23 02:45:44;;;;;;;3.10;2.60;;;9.20;99.90;;;;;;952247;148;27370;-80
2023/10/23 02:48:11;;;;;;;5.60;2.83;;;9.20;99.90;;;;;;953776;148;27283;-79
2023/10/23 02:50:38;;;;;;;3.73;2.77;;;9.10;99.90;;;;;;953437;149;27326;-76
2023/10/23 02:53:05;;;;;;;3.13;2.60;;;9.10;99.90;;;;;;952564;149;27365;-76
2023/10/23 02:55:31;;;;;;;5.27;2.90;;;9.00;99.90;;;;;;950994;148;27260;-77
2023/10/23 02:57:57;;;;;;;7.03;3.13;;;9.00;99.90;;;;;;952598;149;27324;-77
2023/10/23 03:00:24;;;;;;;3.60;2.57;;;9.00;99.90;;;;;;952133;149;27269;-77
2023/10/23 03:02:50;;;;;;;4.20;2.67;;;9.00;99.90;;;;;;952985;147;27423;-77
2023/10/23 03:05:17;;;;;;;4.70;2.37;;;8.90;99.90;;;;;;952431;146;27333;-77
2023/10/23 03:07:44;;;;;;;8.53;3.23;;;8.90;99.90;;;;;;949933;146;27320;-77
2023/10/23 03:10:10;;;;;;;2.87;2.60;;;8.90;99.90;;;;;;951656;146;27368;-76
2023/10/23 03:12:37;;;;;;;2.80;2.60;;;8.80;99.90;;;;;;953114;146;27408;-76
2023/10/23 03:15:04;;;;;;;3.50;2.63;;;8.80;99.90;;;;;;949670;146;27837;-77
2023/10/23 03:17:30;;;;;;;7.27;3.13;;;8.80;99.90;;;;;;953453;146;27417;-77
2023/10/23 03:19:57;;;;;;;5.43;2.80;;;8.70;99.90;;;;;;952575;146;27284;-77
2023/10/23 03:22:23;;;;;;;2.70;2.40;;;8.70;99.90;;;;;;951883;146;27306;-77
2023/10/23 03:24:50;;;;;;;3.87;2.80;;;8.70;99.90;;;;;;949729;146;27353;-77
2023/10/23 03:27:16;;;;;;;4.10;2.20;;;8.60;99.90;;;;;;952706;146;27394;-77
2023/10/23 03:29:43;;;;;;;5.97;2.73;;;8.60;99.90;;;;;;950891;146;27456;-77
2023/10/23 03:32:10;;;;;;;4.57;2.43;;;8.60;99.90;;;;;;950562;146;27714;-77
2023/10/23 03:34:36;;;;;;;2.87;2.37;;;8.60;99.90;;;;;;949728;146;27316;-76
2023/10/23 03:37:03;;;;;;;3.27;2.40;;;8.50;99.90;;;;;;951147;146;27313;-77
2023/10/23 03:39:30;;;;;;;8.30;2.53;;;8.50;99.90;;;;;;951022;146;27317;-77
2023/10/23 03:41:56;;;;;;;4.00;2.70;;;8.50;99.90;;;;;;951434;146;27924;-77
2023/10/23 03:44:22;;;;;;;6.40;2.80;;;8.50;99.90;;;;;;949919;147;27336;-77
2023/10/23 03:46:49;;;;;;;2.70;2.50;;;8.50;99.90;;;;;;951339;146;27321;-77
2023/10/23 03:49:16;;;;;;;3.13;2.50;;;8.50;99.90;;;;;;952614;146;27245;-77
2023/10/23 03:51:42;;;;;;;6.20;2.70;;;8.50;99.90;;;;;;951495;146;27308;-76
2023/10/23 03:54:09;;;;;;;4.13;2.30;;;8.50;99.90;;;;;;951189;146;27277;-77
2023/10/23 03:56:35;;;;;;;3.90;2.60;;;8.40;99.90;;;;;;950391;146;27361;-77
2023/10/23 03:59:02;;;;;;;4.13;2.73;;;8.50;99.90;;;;;;950323;146;27705;-77
2023/10/23 04:01:29;;;;;;;4.47;2.67;;;8.50;99.90;;;;;;951415;146;27409;-77
2023/10/23 04:03:55;;;;;;;4.63;3.20;;;8.40;99.90;;;;;;952585;146;27296;-80
2023/10/23 04:06:22;;;;;;;3.50;2.63;;;8.40;99.90;;;;;;953607;149;27341;-80
2023/10/23 04:08:48;;;;;;;3.33;2.50;;;8.40;99.90;;;;;;954471;149;27399;-80
2023/10/23 04:11:15;;;;;;;3.80;2.57;;;8.30;99.90;;;;;;952195;149;27427;-80
2023/10/23 04:13:41;;;;;;;4.63;2.30;;;8.40;99.90;;;;;;953072;149;27354;-80
2023/10/23 04:16:08;;;;;;;2.43;2.23;;;8.40;99.90;;;;;;952959;149;27364;-79
2023/10/23 04:18:35;;;;;;;2.40;2.20;;;8.30;99.90;;;;;;953175;149;27281;-77
2023/10/23 04:21:04;;;;;;;4.03;2.73;;;8.30;99.90;;;;;;952954;149;27328;-76
2023/10/23 04:23:31;;;;;;;3.47;2.70;;;8.30;99.90;;;;;;949093;149;27333;-79
2023/10/23 04:25:57;;;;;;;2.57;2.17;;;8.30;99.90;;;;;;952613;149;27301;-80
2023/10/23 04:28:24;;;;;;;7.47;3.03;;;8.20;99.90;;;;;;952692;148;27402;-78
2023/10/23 04:30:51;;;;;;;2.93;2.60;;;8.20;99.90;;;;;;952812;149;27404;-75
2023/10/23 04:33:21;;;;;;;4.43;2.63;;;8.20;99.90;;;;;;950741;149;27325;-79
2023/10/23 04:35:44;;;;;;;3.93;2.67;;;8.20;99.90;;;;;;952951;149;27358;-79
2023/10/23 04:38:10;;;;;;;3.97;2.60;;;8.20;99.90;;;;;;953268;149;27404;-79
2023/10/23 04:40:37;;;;;;;4.77;2.60;;;8.20;99.90;;;;;;951840;149;27434;-79
2023/10/23 04:43:04;;;;;;;3.57;2.47;;;8.20;99.90;;;;;;953043;148;27379;-79
2023/10/23 04:45:30;;;;;;;3.80;2.60;;;8.20;99.90;;;;;;952116;149;27355;-78
2023/10/23 04:47:57;;;;;;;3.63;2.40;;;8.20;99.90;;;;;;952978;149;27733;-78
2023/10/23 04:50:23;;;;;;;4.00;2.67;;;8.20;99.90;;;;;;949984;149;27424;-80
2023/10/23 04:52:50;;;;;;;3.70;2.50;;;8.20;99.90;;;;;;952922;149;27393;-77
2023/10/23 04:55:16;;;;;;;4.60;2.80;;;8.20;99.90;;;;;;954723;149;27263;-76
2023/10/23 04:57:43;;;;;;;3.90;3.40;;;8.20;99.90;;;;;;952499;149;27852;-79
2023/10/23 05:00:10;;;;;;;6.20;5.60;;;8.10;99.90;;;;;;952915;149;27332;-76
2023/10/23 05:02:36;;;;;;;5.57;3.53;;;8.10;99.90;;;;;;952694;149;27299;-76
2023/10/23 05:05:03;;;;;;;4.30;3.07;;;8.10;99.90;;;;;;954135;146;27382;-77
2023/10/23 05:07:29;;;;;;;4.00;3.03;;;8.10;99.90;;;;;;950331;146;27341;-79
2023/10/23 05:09:56;;;;;;;3.30;2.57;;;8.10;99.90;;;;;;952551;146;27449;-79
2023/10/23 05:12:22;;;;;;;2.90;2.23;;;8.10;99.90;;;;;;951430;146;27273;-76
2023/10/23 05:14:49;;;;;;;6.17;2.10;;;8.10;99.90;;;;;;949567;146;28014;-80
2023/10/23 05:17:16;;;;;;;3.13;2.20;;;8.10;99.90;;;;;;949644;146;27928;-79
2023/10/23 05:19:42;;;;;;;3.03;2.47;;;8.10;99.90;;;;;;952139;146;27348;-79
2023/10/23 05:22:09;;;;;;;3.73;2.63;;;8.10;99.90;;;;;;951567;147;27364;-78
2023/10/23 05:24:35;;;;;;;3.37;2.17;;;8.10;99.90;;;;;;950664;146;27333;-80
2023/10/23 05:27:02;;;;;;;2.60;2.40;;;8.00;99.90;;;;;;951226;146;27295;-81
2023/10/23 05:29:29;;;;;;;4.60;2.87;;;8.00;99.90;;;;;;951735;146;27290;-81
2023/10/23 05:31:55;;;;;;;4.13;2.53;;;8.00;99.90;;;;;;949011;146;27310;-79
2023/10/23 05:34:22;;;;;;;3.43;2.70;;;8.00;99.90;;;;;;952890;146;27321;-78
2023/10/23 05:36:48;;;;;;;5.53;2.53;;;8.00;99.90;;;;;;951191;146;27353;-79
2023/10/23 05:39:15;;;;;;;2.80;2.60;;;8.00;99.90;;;;;;949725;146;27450;-80
2023/10/23 05:41:41;;;;;;;3.50;2.70;;;8.00;99.90;;;;;;952225;146;27390;-79
2023/10/23 05:44:08;;;;;;;4.67;2.80;;;8.00;99.90;;;;;;951447;146;27348;-80
2023/10/23 05:46:35;;;;;;;4.10;2.70;;;8.00;99.90;;;;;;950569;146;28577;-79
2023/10/23 05:49:01;;;;;;;4.77;2.60;;;8.00;99.90;;;;;;952755;146;27887;-79
2023/10/23 05:51:28;;;;;;;4.83;2.67;;;8.00;99.90;;;;;;952304;146;27310;-79
2023/10/23 05:53:54;;;;;;;3.67;2.60;;;8.00;99.90;;;;;;950553;146;27351;-80
2023/10/23 05:56:21;;;;;;;3.90;2.40;;;8.00;99.90;;;;;;952765;146;27365;-79
2023/10/23 05:58:48;;;;;;;2.63;2.10;;;8.00;99.90;;;;;;951280;146;27288;-79
2023/10/23 06:01:14;;;;;;;3.67;2.30;;;8.00;99.90;;;;;;952014;146;27304;-79
2023/10/23 06:03:41;;;;;;;5.17;2.30;;;8.00;99.90;;;;;;950396;146;28335;-80
2023/10/23 06:06:07;;;;;;;2.53;2.33;;;8.00;99.90;;;;;;948408;146;27354;-79
2023/10/23 06:08:34;;;;;;;3.73;2.30;;;8.00;99.90;;;;;;950466;146;27347;-79
2023/10/23 06:11:00;;;;;;;4.47;2.57;;;8.00;99.90;;;;;;951106;146;27273;-80
2023/10/23 06:13:27;;;;;;;2.97;2.40;;;8.00;99.90;;;;;;950771;146;27355;-75
2023/10/23 06:15:55;;;;;;;2.93;2.53;;;8.00;99.90;;;;;;953274;146;27324;-79
2023/10/23 06:18:20;;;;;;;2.67;2.47;;;8.10;99.90;;;;;;951588;146;27251;-76
2023/10/23 06:20:47;;;;;;;4.53;2.60;;;8.10;99.90;;;;;;952229;146;29105;-77
2023/10/23 06:23:14;;;;;;;3.77;2.50;;;8.30;99.90;;;;;;951325;146;27292;-74
2023/10/23 06:25:40;;;;;;;4.63;2.97;;;8.40;99.90;;;;;;952812;146;27454;-74
2023/10/23 06:28:07;;;;;;;3.73;3.33;;;8.50;99.90;;;;;;951056;146;28313;-74
2023/10/23 06:30:33;;;;;;;8.70;3.50;;;8.70;99.90;;;;;;954043;146;27458;-74
2023/10/23 06:33:00;;;;;;;7.37;3.23;;;9.00;99.90;;;;;;951970;146;27776;-74
2023/10/23 06:38:03;;;;;;;4.03;3.30;;;9.20;99.90;;;;;;971378;145;37341;-73
2023/10/23 06:40:28;;;;;;;3.90;3.43;;;9.70;99.90;;;;;;958621;147;27706;-74
2023/10/23 06:42:54;;;;;;;4.30;3.90;;;9.90;99.90;;;;;;945196;147;27368;-78
2023/10/23 06:45:21;;;;;;;3.90;3.50;;;10.20;99.90;;;;;;938282;149;27360;-74
2023/10/23 06:47:48;;;;;;;9.20;3.73;;;10.40;99.90;;;;;;933799;150;27390;-76
2023/10/23 06:50:14;;;;;;;22.67;5.40;;;10.60;99.90;;;;;;934333;151;27426;-75
2023/10/23 06:52:41;;;;;;;7.17;3.67;;;10.80;99.90;;;;;;936512;151;27359;-77
2023/10/23 06:55:07;;;;;;;10.80;4.03;;;11.00;99.90;;;;;;936957;150;27369;-74
2023/10/23 06:57:34;;;;;;;3.97;3.30;;;11.30;99.90;;;;;;936495;150;27344;-76
2023/10/23 07:00:01;;;;;;;7.77;4.07;;;11.50;99.90;;;;;;934114;151;27355;-75
2023/10/23 07:02:27;;;;;;;5.57;4.10;;;11.70;99.90;;;;;;934132;150;27792;-76
2023/10/23 07:04:54;;;;;;;11.30;4.40;;;12.00;99.90;;;;;;934822;151;27358;-74
2023/10/23 07:07:20;;;;;;;6.80;4.87;;;12.30;99.90;;;;;;934550;150;27446;-74
2023/10/23 07:09:47;;;;;;;6.00;4.80;;;12.60;99.90;;;;;;933783;151;27381;-76
2023/10/23 07:12:14;;;;;;;5.83;3.87;;;12.90;99.90;;;;;;935388;151;27391;-75
2023/10/23 07:14:40;;;;;;;5.25;4.33;;;13.30;99.90;;;;;;932020;149;28147;-74
2023/10/23 07:17:07;;;;;;;7.50;3.90;;;13.70;99.90;;;;;;936467;151;27298;-74
2023/10/23 07:19:33;;;;;;;5.50;4.42;;;14.20;99.90;;;;;;934392;151;27457;-77
2023/10/23 07:22:00;;;;;;;4.78;3.87;;;14.70;99.90;;;;;;936057;150;27484;-75
2023/10/23 07:24:26;;;;;;;5.17;3.98;;;15.20;99.90;;;;;;934013;149;27368;-78
2023/10/23 07:26:53;;;;;;;5.20;4.75;;;15.80;99.90;;;;;;935727;149;27456;-76
2023/10/23 07:29:20;;;;;;;5.50;4.65;;;16.20;99.90;;;;;;934204;149;27387;-75
2023/10/23 07:31:46;;;;;;;4.35;3.95;;;16.80;99.90;;;;;;933935;149;27484;-78
2023/10/23 07:34:13;;;;;;;10.05;4.10;;;17.30;99.90;;;;;;933233;149;27359;-77
2023/10/23 07:36:40;;;;;;;4.40;3.62;;;17.70;99.90;;;;;;934392;151;27420;-77
2023/10/23 07:39:07;;;;;;;4.00;3.60;;;18.20;99.90;;;;;;931777;149;27423;-77
2023/10/23 07:41:33;;;;;;;2.70;2.47;;;18.70;99.90;;;;;;933561;149;27382;-77
2023/10/23 07:43:59;;;;;;;4.42;2.72;;;19.10;98.50;;;;;;923471;149;27452;-77
2023/10/23 07:46:26;;;;;;;2.40;2.20;;;19.50;96.40;;;;;;921804;152;27352;-77
2023/10/23 07:48:52;;;;;;;3.47;2.27;;;19.80;94.90;;;;;;918581;151;27365;-77
2023/10/23 07:51:19;;;;;;;3.75;2.90;;;20.10;93.80;;;;;;918634;152;27356;-77
2023/10/23 07:53:46;;;;;;;3.17;1.92;;;20.40;92.40;;;;;;915937;152;27346;-77
2023/10/23 07:56:12;;;;;;;3.83;2.08;;;20.60;91.70;;;;;;918292;152;27336;-78
2023/10/23 07:58:39;;;;;;;2.40;2.20;;;20.90;90.80;;;;;;918401;152;27348;-77
2023/10/23 08:01:05;;;;;;;5.08;2.67;;;21.20;90.20;;;;;;917044;152;27490;-78
2023/10/23 08:03:33;;;;;;;2.62;2.42;;;21.40;87.80;;;;;;917286;152;27495;-78
2023/10/23 08:05:58;;;;;;;4.92;2.40;;;21.60;85.60;;;;;;917941;152;27503;-78
2023/10/23 08:08:25;;;;;;;3.10;2.70;;;21.80;84.30;;;;;;919676;152;27377;-77
2023/10/23 08:10:52;;;;;;;3.02;2.30;;;22.00;82.80;;;;;;918583;152;27451;-78
2023/10/23 08:13:18;;;;;;;4.45;2.60;;;22.20;82.20;;;;;;918306;152;27893;-78
2023/10/23 08:15:45;;;;;;;4.17;2.62;;;22.50;81.80;;;;;;918009;151;27451;-78
2023/10/23 08:18:11;;;;;;;4.67;2.85;;;22.70;80.90;;;;;;916340;152;27906;-78
2023/10/23 08:20:38;;;;;;;3.12;2.70;;;22.80;79.70;;;;;;919276;152;27496;-78
2023/10/23 08:23:05;;;;;;;3.45;2.65;;;22.90;76.10;;;;;;918267;152;27501;-78
2023/10/23 08:25:31;;;;;;;4.35;3.20;;;22.90;73.90;;;;;;918214;152;27404;-77
2023/10/23 08:27:58;;;;;;;3.50;3.02;;;22.80;72.20;;;;;;920034;152;27374;-77
2023/10/23 08:30:24;;;;;;;4.42;2.27;;;22.50;71.00;;;;;;921560;152;27411;-77
2023/10/23 08:32:51;;;;;;;4.65;2.55;;;22.20;70.30;;;;;;920410;152;27491;-78
2023/10/23 08:35:19;;;;;;;5.25;2.27;;;21.90;70.20;;;;;;918798;152;27390;-78
2023/10/23 08:37:44;;;;;;;3.22;2.58;;;21.60;70.30;;;;;;921013;152;27420;-77
2023/10/23 08:40:11;;;;;;;3.75;2.90;;;21.40;71.00;;;;;;919315;152;27530;-78
2023/10/23 08:42:37;;;;;;;4.08;2.60;;;21.20;72.40;;;;;;918338;152;27424;-77
2023/10/23 08:45:04;;;;;;;2.67;2.45;;;21.10;73.20;;;;;;921575;151;27411;-79
2023/10/23 08:47:31;;;;;;;4.22;2.70;;;21.10;73.60;;;;;;920155;152;27510;-81
2023/10/23 08:50:02;;;;;;;3.90;2.40;;;21.20;74.30;;;;;;918929;152;27461;-81
2023/10/23 08:52:24;;;;;;;4.15;2.77;;;21.30;75.00;;;;;;920313;152;27505;-80
2023/10/23 08:54:50;;;;;;;2.90;2.30;;;21.40;74.70;;;;;;919568;152;27335;-81
2023/10/23 08:57:17;;;;;;;3.50;2.80;;;21.50;74.00;;;;;;917115;152;27421;-77
2023/10/23 08:59:44;;;;;;;4.45;2.58;;;21.60;73.30;;;;;;919345;152;27373;-79
2023/10/23 09:02:10;;;;;;;4.42;2.58;;;21.60;73.00;;;;;;920972;152;27290;-81
2023/10/23 09:04:37;;;;;;;2.80;2.50;;;21.60;72.50;;;;;;921026;152;27341;-78
2023/10/23 09:07:03;;;;;;;5.10;2.37;;;21.50;72.10;;;;;;920633;152;27832;-81
2023/10/23 09:09:30;;;;;;;2.60;2.40;;;21.50;71.70;;;;;;920053;152;27391;-78
2023/10/23 09:11:57;;;;;;;2.55;2.22;;;21.40;71.10;;;;;;921650;151;27394;-79
2023/10/23 09:14:23;;;;;;;3.15;2.40;;;21.30;70.70;;;;;;918866;151;27389;-75
2023/10/23 09:16:50;;;;;;;3.62;3.33;;;21.20;70.10;;;;;;911526;152;27404;-76
2023/10/23 09:19:26;;;;;;;4.30;2.67;;;21.00;70.00;;;;;;914392;152;27368;-79
2023/10/23 09:21:58;;;;;;;4.75;3.22;;;20.80;70.10;;;;;;926886;150;27412;-79
2023/10/23 09:24:25;;;;;;;3.42;2.50;;;20.60;70.30;;;;;;912914;152;27365;-77
2023/10/23 09:26:52;;;;;;;3.90;2.47;;;20.40;71.10;;;;;;928117;149;27352;-79
2023/10/23 09:29:24;;;;;;;3.75;2.37;;;20.40;72.20;;;;;;928022;149;27410;-79
2023/10/23 09:31:50;;;;;;;5.55;3.10;;;20.30;73.20;;;;;;927868;149;27358;-81
2023/10/23 09:34:18;;;;;;;3.37;2.75;;;20.40;74.00;;;;;;927142;149;27315;-81
2023/10/23 09:36:43;;;;;;;3.42;3.05;;;20.50;73.80;;;;;;913837;152;27352;-81
2023/10/23 09:39:10;;;;;;;4.53;3.52;;;20.60;73.30;;;;;;903910;153;27385;-82
2023/10/23 09:41:37;;;;;;;4.92;3.47;;;20.70;72.50;;;;;;929051;150;27352;-80
2023/10/23 09:44:03;;;;;;;5.25;3.52;;;20.70;71.70;;;;;;927734;150;27339;-82
2023/10/23 09:46:30;;;;;;;9.53;4.22;;;20.60;71.20;;;;;;930000;150;27477;-77
2023/10/23 09:48:59;;;;;;;7.05;3.87;;;20.60;70.90;;;;;;928025;150;27362;-82
2023/10/23 09:51:23;;;;;;;7.65;3.58;;;20.50;70.70;;;;;;929608;150;27330;-79
2023/10/23 09:53:50;;;;;;;4.25;3.33;;;20.30;70.50;;;;;;927004;150;27394;-81
2023/10/23 09:56:16;;;;;;;4.75;3.60;;;20.20;70.30;;;;;;926059;150;27378;-81
2023/10/23 09:58:43;;;;;;;5.87;3.40;;;20.00;71.00;;;;;;926774;150;27464;-82
2023/10/23 10:01:11;;;;;;;5.45;3.33;;;19.90;71.20;;;;;;926578;150;27363;-82
2023/10/23 10:03:36;;;;;;;4.72;3.33;;;19.80;71.70;;;;;;928423;150;27581;-81
2023/10/23 10:06:02;;;;;;;6.10;2.95;;;19.70;72.10;;;;;;927497;150;27396;-81
2023/10/23 10:08:29;;;;;;;4.70;2.87;;;19.70;72.50;;;;;;928044;150;27806;-81
2023/10/23 10:10:56;;;;;;;4.28;2.70;;;19.60;72.50;;;;;;925624;150;27342;-81
2023/10/23 10:13:22;;;;;;;8.60;3.27;;;19.60;72.90;;;;;;925497;150;27332;-81
2023/10/23 10:15:49;;;;;;;4.30;2.85;;;19.60;72.70;;;;;;915044;152;27269;-81
2023/10/23 10:18:16;;;;;;;2.45;2.25;;;19.60;72.80;;;;;;906144;153;27388;-80
2023/10/23 10:20:48;;;;;;;3.55;2.83;;;19.60;73.00;;;;;;928597;150;27341;-79
2023/10/23 10:23:17;;;;;;;2.92;2.50;;;19.50;72.90;;;;;;928154;150;27307;-79
2023/10/23 10:25:44;;;;;;;3.52;2.92;;;19.50;73.00;;;;;;926855;150;27640;-79
2023/10/23 10:28:11;;;;;;;3.22;2.40;;;19.50;73.00;;;;;;925588;150;27790;-79
2023/10/23 10:30:37;;;;;;;3.20;2.90;;;19.50;73.00;;;;;;924084;150;27452;-80
2023/10/23 10:33:03;;;;;;;4.12;3.65;;;19.50;73.10;;;;;;926954;150;27434;-78
2023/10/23 10:35:30;;;;;;;3.83;3.52;;;19.40;73.30;;;;;;925579;150;27319;-80
2023/10/23 10:37:57;;;;;;;4.37;3.40;;;19.40;73.30;;;;;;925770;150;27276;-79
2023/10/23 10:40:23;;;;;;;4.08;3.35;;;19.40;73.50;;;;;;911478;152;27534;-80
2023/10/23 10:42:50;;;;;;;3.92;3.50;;;19.40;73.50;;;;;;908996;152;27362;-77
2023/10/23 10:45:17;;;;;;;3.80;3.45;;;19.40;73.60;;;;;;909729;152;27449;-80
2023/10/23 10:47:51;;;;;;;3.90;3.22;;;19.40;73.80;;;;;;924585;150;27289;-79
2023/10/23 10:50:31;;;;;;;3.75;3.40;;;19.40;73.80;;;;;;918508;151;27378;-80
2023/10/23 10:53:01;;;;;;;4.10;3.35;;;19.40;73.90;;;;;;926802;150;27375;-79
2023/10/23 10:55:26;;;;;;;3.87;3.05;;;19.40;74.00;;;;;;926224;150;27408;-76
2023/10/23 10:57:53;;;;;;;6.00;3.70;;;19.50;74.10;;;;;;925355;150;27316;-76
2023/10/23 11:00:22;;;;;;;8.70;3.90;;;19.50;74.10;;;;;;925534;153;27263;-78
2023/10/23 11:02:46;;;;;;;4.15;3.35;;;19.60;74.00;;;;;;925320;150;27493;-78
2023/10/23 11:05:13;;;;;;;3.70;3.40;;;19.60;74.10;;;;;;928130;150;27290;-79
2023/10/23 11:07:39;;;;;;;4.28;3.30;;;19.60;74.20;;;;;;924418;153;27951;-80
2023/10/23 11:10:06;;;;;;;4.83;3.33;;;19.70;74.40;;;;;;923947;150;27793;-79
2023/10/23 11:12:32;;;;;;;3.40;3.10;;;19.70;74.30;;;;;;924937;150;27388;-79
2023/10/23 11:14:59;;;;;;;3.77;2.90;;;19.70;74.20;;;;;;912419;152;27400;-79
2023/10/23 11:17:26;;;;;;;7.53;3.50;;;19.80;74.20;;;;;;902235;153;27347;-79
2023/10/23 11:19:52;;;;;;;5.90;3.15;;;19.80;74.20;;;;;;917873;152;27327;-80
2023/10/23 11:22:21;;;;;;;3.55;2.80;;;19.80;74.10;;;;;;916351;152;27446;-80
2023/10/23 11:24:45;;;;;;;4.30;2.95;;;19.90;74.30;;;;;;919214;152;27349;-79
2023/10/23 11:27:12;;;;;;;5.50;3.05;;;19.90;74.20;;;;;;918186;152;27994;-79
2023/10/23 11:29:41;;;;;;;5.20;2.90;;;19.90;74.10;;;;;;919179;152;27375;-78
2023/10/23 11:32:08;;;;;;;2.95;2.62;;;20.00;74.20;;;;;;920101;151;27489;-76
2023/10/23 11:34:37;;;;;;;6.78;3.47;;;20.00;74.10;;;;;;920474;152;27376;-77
2023/10/23 11:37:04;;;;;;;5.62;3.10;;;20.10;73.90;;;;;;916865;152;27483;-76
2023/10/23 11:39:30;;;;;;;3.17;2.70;;;20.10;73.50;;;;;;917451;152;27383;-79
2023/10/23 11:41:57;;;;;;;4.83;2.77;;;20.20;73.60;;;;;;915240;155;27393;-80
2023/10/23 11:44:26;;;;;;;3.83;3.12;;;20.20;73.60;;;;;;917163;152;27304;-80
2023/10/23 11:46:55;;;;;;;3.42;3.12;;;20.20;73.60;;;;;;916956;155;27358;-78
2023/10/23 11:49:25;;;;;;;5.47;3.98;;;20.30;73.50;;;;;;917393;152;27355;-76
2023/10/23 11:51:57;;;;;;;4.97;3.33;;;20.30;73.50;;;;;;914336;152;27480;-76
2023/10/23 11:54:23;;;;;;;5.75;3.00;;;20.30;73.30;;;;;;916024;152;27360;-79
2023/10/23 11:56:50;;;;;;;6.00;3.10;;;20.30;73.30;;;;;;916848;155;27383;-79
2023/10/23 11:59:19;;;;;;;4.50;3.08;;;20.30;74.00;;;;;;915365;155;27849;-80
2023/10/23 12:01:46;;;;;;;5.08;2.58;;;20.40;73.20;;;;;;915628;152;27361;-79
2023/10/23 12:04:13;;;;;;;3.92;2.75;;;20.40;73.20;;;;;;915500;155;27335;-79
2023/10/23 12:06:39;;;;;;;4.78;3.10;;;20.40;73.20;;;;;;923093;154;27401;-79
2023/10/23 12:09:06;;;;;;;3.65;2.50;;;20.40;73.20;;;;;;914719;155;27490;-76
2023/10/23 12:11:32;;;;;;;4.08;2.22;;;20.40;73.30;;;;;;915679;155;28265;-78
2023/10/23 12:14:01;;;;;;;3.98;2.60;;;20.40;73.30;;;;;;915855;155;27400;-76
2023/10/23 12:16:28;;;;;;;5.53;2.62;;;20.50;73.20;;;;;;929884;151;27340;-76
2023/10/23 12:18:55;;;;;;;2.50;2.25;;;20.50;73.20;;;;;;933923;153;27359;-76
2023/10/23 12:21:21;;;;;;;2.62;2.12;;;20.50;73.10;;;;;;905891;154;27404;-76
2023/10/23 12:23:48;;;;;;;5.58;2.37;;;20.60;73.00;;;;;;928297;151;27319;-77
2023/10/23 12:26:14;;;;;;;3.95;2.37;;;20.60;73.00;;;;;;930910;151;27337;-76
2023/10/23 12:28:41;;;;;;;4.50;2.65;;;20.60;72.80;;;;;;930303;151;27469;-76
2023/10/23 12:31:08;;;;;;;2.98;2.20;;;20.70;72.80;;;;;;929354;153;27425;-76
2023/10/23 12:33:34;;;;;;;2.85;2.35;;;20.70;72.80;;;;;;928232;153;27332;-76
2023/10/23 12:36:03;;;;;;;3.58;2.33;;;20.70;72.80;;;;;;928197;151;27328;-76
2023/10/23 12:38:28;;;;;;;5.80;2.50;;;20.70;72.70;;;;;;929224;150;27794;-76
2023/10/23 12:40:54;;;;;;;3.75;2.50;;;20.70;72.60;;;;;;911717;152;27488;-76
2023/10/23 12:43:21;;;;;;;3.90;2.40;;;20.70;72.50;;;;;;909037;152;27524;-76
2023/10/23 12:45:47;;;;;;;3.90;2.52;;;20.70;72.50;;;;;;924023;150;27345;-76
2023/10/23 12:48:14;;;;;;;2.77;2.08;;;20.80;72.70;;;;;;926834;150;27537;-76
2023/10/23 12:50:40;;;;;;;2.77;2.50;;;20.80;72.60;;;;;;924104;150;27304;-76